TALO2: Illinois River, Tahlequah, OK

                                SHEF ID:       TALO2     Illinois River near Tahlequah, O
STATION TYPE:
Regulating: Stage = 11.00, Flow = 10168

PRECIP STAGE STAGE(2) RIV-FLOW BAT-LOAD
in ft ft cfs volt
Ccp-Rev Ccp-Rev Ccp-Rev Ccp-Rev Ccp-Rev
(America/Chicago)
04/27 00:00 ---- 9.95 ---- 7829 12.33
04/27 01:00 ---- 10.13 ---- 8209 12.25
04/27 02:00 ---- 10.30 ---- 8576 12.09
04/27 03:00 ---- 10.46 ---- 8929 12.09
04/27 04:00 ---- 10.54 ---- 9107 12.01
04/27 05:00 ---- 10.58 ---- 9197 12.01
04/27 06:00 ---- 10.56 ---- 9152 12.01
04/27 07:00 ---- 10.49 ---- 8996 12.01
04/27 08:00 ---- 10.33 ---- 8642 11.93
04/27 09:00 ---- 10.16 ---- 8273 12.41
04/27 10:00 ---- 9.97 ---- 7870 12.73
04/27 11:00 ---- 9.78 ---- 7475 12.97
04/27 12:00 ---- 9.63 ---- 7165 12.89
04/27 13:00 ---- 9.50 ---- 6898 12.89
04/27 14:00 ---- 9.34 ---- 6573 12.65
04/27 15:00 ---- 9.25 ---- 6391 12.73
04/27 16:00 ---- 9.13 ---- 6149 12.57
04/27 17:00 ---- 9.06 ---- 6009 12.65
04/27 18:00 ---- 8.94 ---- 5771 12.65
04/27 19:00 ---- 8.87 ---- 5632 12.65
04/27 20:00 ---- 8.81 ---- 5514 12.49
04/27 21:00 ---- 8.74 ---- 5377 12.33
04/27 22:00 ---- 8.66 ---- 5220 12.25
04/27 23:00 ---- ---- ---- ---- ----
Data processed at Tue 28Apr2026 04:33 GMT

NOTICE: If you are parsing this page

Please convert to using our Data API. Starting early 2026 we will be migrating to: https://water.usace.army.mil with modern pages rendered in JavaScript. When this migration completes you will no longer be able to scrape this page! CWMSDataAPI (CDA)

Timeseries IDs (TSIDs)

TSIDs used from left to right in the data table
TAHL.Precip-Inc.Total.1Hour.0.Ccp-Rev
TAHL.Stage.Inst.1Hour.0.Ccp-Rev
TAHL.Stage-Alt.Inst.1Hour.0.Ccp-Rev
TAHL.Flow.Inst.1Hour.0.Ccp-Rev
TAHL.Volt-Battery Load.Inst.1Hour.0.Ccp-Rev

                            

All information presented herein is the property of the government of the United States of America and may be revised or deleted at any time without prior notice. Dissemination of this information without the expressed written consent of the Public Affairs Office, Tulsa District U.S. Army Corps of Engineers is strictly prohibited. These data are gathered electronically and, as presented, have NOT undergone any form of quality control. These data are NOT guaranteed to be valid or correct.